Time,TemperatureF,DewpointF,PressureIn,WindDirection,WindDirectionDegrees,WindSpeedMPH,WindSpeedGustMPH,Humidity,HourlyPrecipIn,Conditions,Clouds,dailyrainin,SoftwareType,DateUTC
2013-10-29 00:12:00,80.8,76.2,29.94,SSW,202,3.8,-999.0,86,-99.99,,,0.00,Acu-Link.com,2013-10-29 04:12:00,
2013-10-29 00:27:00,80.2,76.4,29.94,SW,225,5.1,-999.0,88,-99.99,,,0.02,Acu-Link.com,2013-10-29 04:27:00,
2013-10-29 00:42:00,79.3,76.8,29.93,SE,135,2.7,-999.0,92,-99.99,,,0.06,Acu-Link.com,2013-10-29 04:42:00,
2013-10-29 00:57:00,79.2,77.0,29.92,SW,225,0.0,-999.0,93,-99.99,,,0.06,Acu-Link.com,2013-10-29 04:57:00,
2013-10-29 01:12:00,79.2,77.3,29.92,ESE,112,2.2,-999.0,94,-99.99,,,0.06,Acu-Link.com,2013-10-29 05:12:00,
2013-10-29 01:27:00,79.0,77.4,29.91,SW,225,2.2,-999.0,95,-99.99,,,0.06,Acu-Link.com,2013-10-29 05:27:00,
2013-10-29 01:43:00,78.8,77.2,29.91,ESE,112,1.6,-999.0,95,-99.99,,,0.06,Acu-Link.com,2013-10-29 05:43:00,
2013-10-29 01:58:00,78.8,77.2,29.91,South,180,3.8,-999.0,95,-99.99,,,0.08,Acu-Link.com,2013-10-29 05:58:00,
2013-10-29 02:13:00,79.0,77.1,29.91,South,180,2.2,-999.0,94,-99.99,,,0.08,Acu-Link.com,2013-10-29 06:13:00,
2013-10-29 02:28:00,78.8,77.2,29.90,South,180,4.7,-999.0,95,-99.99,,,0.08,Acu-Link.com,2013-10-29 06:28:00,
2013-10-29 02:44:00,78.1,76.8,29.90,SE,135,2.2,-999.0,96,-99.99,,,0.18,Acu-Link.com,2013-10-29 06:44:00,
2013-10-29 02:59:00,78.3,77.0,29.89,South,180,1.6,-999.0,96,-99.99,,,0.19,Acu-Link.com,2013-10-29 06:59:00,
2013-10-29 03:14:00,78.3,77.0,29.89,ESE,112,0.0,-999.0,96,-99.99,,,0.19,Acu-Link.com,2013-10-29 07:14:00,
2013-10-29 03:29:00,77.5,76.3,29.89,East,90,9.4,-999.0,96,-99.99,,,0.27,Acu-Link.com,2013-10-29 07:29:00,
2013-10-29 03:44:00,76.8,75.9,29.89,West,270,1.1,-999.0,97,-99.99,,,0.28,Acu-Link.com,2013-10-29 07:44:00,
2013-10-29 03:59:00,77.0,75.8,29.89,SSE,157,3.8,-999.0,96,-99.99,,,0.31,Acu-Link.com,2013-10-29 07:59:00,
2013-10-29 04:14:00,76.8,75.6,29.89,SW,225,1.6,-999.0,96,-99.99,,,0.31,Acu-Link.com,2013-10-29 08:14:00,
2013-10-29 04:29:00,77.0,75.8,29.89,SSE,157,1.6,-999.0,96,-99.99,,,0.31,Acu-Link.com,2013-10-29 08:29:00,
2013-10-29 04:44:00,77.0,76.1,29.90,NE,45,0.0,-999.0,97,-99.99,,,0.36,Acu-Link.com,2013-10-29 08:44:00,
2013-10-29 04:59:00,77.0,76.4,29.90,SSW,202,4.3,-999.0,98,-99.99,,,0.46,Acu-Link.com,2013-10-29 08:59:00,
2013-10-29 05:14:00,75.2,74.9,29.91,ESE,112,7.8,-999.0,99,-99.99,,,0.89,Acu-Link.com,2013-10-29 09:14:00,
2013-10-29 05:29:00,75.4,75.1,29.91,ESE,112,4.3,-999.0,99,-99.99,,,1.31,Acu-Link.com,2013-10-29 09:29:00,
2013-10-29 05:45:00,76.3,76.0,29.90,South,180,3.1,-999.0,99,-99.99,,,1.37,Acu-Link.com,2013-10-29 09:45:00,
2013-10-29 06:00:00,76.5,76.2,29.90,East,90,2.7,-999.0,99,-99.99,,,1.37,Acu-Link.com,2013-10-29 10:00:00,
2013-10-29 06:15:00,76.6,76.3,29.91,ESE,112,2.2,-999.0,99,-99.99,,,1.37,Acu-Link.com,2013-10-29 10:15:00,
2013-10-29 06:30:00,76.6,76.3,29.92,South,180,1.6,-999.0,99,-99.99,,,1.37,Acu-Link.com,2013-10-29 10:30:00,
2013-10-29 06:45:00,77.0,76.7,29.92,South,180,1.1,-999.0,99,-99.99,,,1.37,Acu-Link.com,2013-10-29 10:45:00,
2013-10-29 07:01:00,77.0,76.7,29.94,SSE,157,1.1,-999.0,99,-99.99,,,1.37,Acu-Link.com,2013-10-29 11:01:00,
2013-10-29 07:16:00,77.2,76.9,29.95,SSW,202,0.0,-999.0,99,-99.99,,,1.37,Acu-Link.com,2013-10-29 11:16:00,
2013-10-29 07:31:00,77.4,77.1,29.95,SE,135,1.6,-999.0,99,-99.99,,,1.37,Acu-Link.com,2013-10-29 11:31:00,
2013-10-29 07:46:00,77.4,76.7,29.96,SSE,157,6.7,-999.0,98,-99.99,,,1.38,Acu-Link.com,2013-10-29 11:46:00,
2013-10-29 08:01:00,76.6,76.3,29.96,SSW,202,3.8,-999.0,99,-99.99,,,1.44,Acu-Link.com,2013-10-29 12:01:00,
2013-10-29 08:17:00,76.3,76.0,29.97,East,90,2.2,-999.0,99,-99.99,,,1.45,Acu-Link.com,2013-10-29 12:17:00,
2013-10-29 08:32:00,76.3,76.0,29.97,SE,135,1.6,-999.0,99,-99.99,,,1.45,Acu-Link.com,2013-10-29 12:32:00,
2013-10-29 08:47:00,76.5,75.2,29.97,ESE,112,4.3,-999.0,96,-99.99,,,1.46,Acu-Link.com,2013-10-29 12:47:00,
2013-10-29 09:02:00,76.3,75.1,29.97,SW,225,3.1,-999.0,96,-99.99,,,1.46,Acu-Link.com,2013-10-29 13:02:00,
2013-10-29 09:17:00,76.6,75.4,29.97,South,180,2.7,-999.0,96,-99.99,,,1.46,Acu-Link.com,2013-10-29 13:17:00,
2013-10-29 09:33:00,77.2,75.9,29.97,ESE,112,3.8,-999.0,96,-99.99,,,1.46,Acu-Link.com,2013-10-29 13:33:00,
2013-10-29 09:48:00,77.5,76.0,29.97,SSE,157,3.8,-999.0,95,-99.99,,,1.46,Acu-Link.com,2013-10-29 13:48:00,
2013-10-29 10:03:00,78.4,76.6,29.98,ESE,112,3.1,-999.0,94,-99.99,,,1.46,Acu-Link.com,2013-10-29 14:03:00,
2013-10-29 10:18:00,79.3,76.8,29.97,SSW,202,3.8,-999.0,92,-99.99,,,1.46,Acu-Link.com,2013-10-29 14:18:00,
2013-10-29 10:34:00,80.4,77.2,29.96,SSE,157,3.1,-999.0,90,-99.99,,,1.46,Acu-Link.com,2013-10-29 14:34:00,
2013-10-29 10:49:00,80.8,77.6,29.96,SW,225,2.2,-999.0,90,-99.99,,,1.46,Acu-Link.com,2013-10-29 14:49:00,
2013-10-29 11:04:00,82.8,77.8,29.94,SE,135,3.1,-999.0,85,-99.99,,,1.46,Acu-Link.com,2013-10-29 15:04:00,
2013-10-29 11:19:00,83.7,77.6,29.94,SW,225,3.8,-999.0,82,-99.99,,,1.46,Acu-Link.com,2013-10-29 15:19:00,
2013-10-29 11:34:00,84.2,77.7,29.94,East,90,2.2,-999.0,81,-99.99,,,1.46,Acu-Link.com,2013-10-29 15:34:00,
2013-10-29 11:50:00,85.5,77.4,29.94,SSE,157,3.8,-999.0,77,-99.99,,,1.46,Acu-Link.com,2013-10-29 15:50:00,
2013-10-29 12:05:00,86.0,77.5,29.93,SE,135,3.8,-999.0,76,-99.99,,,1.46,Acu-Link.com,2013-10-29 16:05:00,
2013-10-29 12:20:00,87.3,77.9,29.93,South,180,4.7,-999.0,74,-99.99,,,1.46,Acu-Link.com,2013-10-29 16:20:00,
2013-10-29 12:35:00,88.0,77.8,29.92,East,90,4.3,-999.0,72,-99.99,,,1.46,Acu-Link.com,2013-10-29 16:35:00,
2013-10-29 12:50:00,88.0,77.8,29.90,East,90,2.7,-999.0,72,-99.99,,,1.46,Acu-Link.com,2013-10-29 16:50:00,
2013-10-29 13:05:00,87.8,77.2,29.90,South,180,7.4,-999.0,71,-99.99,,,1.46,Acu-Link.com,2013-10-29 17:05:00,
2013-10-29 13:21:00,87.6,77.4,29.88,ESE,112,5.1,-999.0,72,-99.99,,,1.46,Acu-Link.com,2013-10-29 17:21:00,
2013-10-29 13:36:00,80.1,75.5,29.88,ESE,112,4.7,-999.0,86,-99.99,,,1.47,Acu-Link.com,2013-10-29 17:36:00,
2013-10-29 13:51:00,79.3,76.8,29.89,ENE,67,2.7,-999.0,92,-99.99,,,1.54,Acu-Link.com,2013-10-29 17:51:00,
2013-10-29 14:06:00,80.4,77.2,29.87,ESE,112,1.6,-999.0,90,-99.99,,,1.59,Acu-Link.com,2013-10-29 18:06:00,
2013-10-29 14:21:00,81.0,77.4,29.87,NNE,22,2.2,-999.0,89,-99.99,,,1.59,Acu-Link.com,2013-10-29 18:21:00,
2013-10-29 14:37:00,80.6,77.0,29.87,East,90,1.1,-999.0,89,-99.99,,,1.59,Acu-Link.com,2013-10-29 18:37:00,
2013-10-29 14:52:00,81.1,77.6,29.86,East,90,1.6,-999.0,89,-99.99,,,1.59,Acu-Link.com,2013-10-29 18:52:00,
2013-10-29 15:07:00,81.9,77.9,29.86,East,90,0.0,-999.0,88,-99.99,,,1.59,Acu-Link.com,2013-10-29 19:07:00,
2013-10-29 15:22:00,82.4,78.1,29.85,SE,135,1.6,-999.0,87,-99.99,,,1.59,Acu-Link.com,2013-10-29 19:22:00,
2013-10-29 15:38:00,83.5,79.2,29.85,ESE,112,2.7,-999.0,87,-99.99,,,1.59,Acu-Link.com,2013-10-29 19:38:00,
2013-10-29 15:53:00,84.6,79.5,29.84,ESE,112,0.0,-999.0,85,-99.99,,,1.59,Acu-Link.com,2013-10-29 19:53:00,
2013-10-29 16:08:00,86.2,79.6,29.84,NW,315,1.1,-999.0,81,-99.99,,,1.59,Acu-Link.com,2013-10-29 20:08:00,
2013-10-29 16:23:00,86.5,79.6,29.85,NE,45,1.6,-999.0,80,-99.99,,,1.59,Acu-Link.com,2013-10-29 20:23:00,
2013-10-29 16:38:00,85.8,79.3,29.86,East,90,0.0,-999.0,81,-99.99,,,1.59,Acu-Link.com,2013-10-29 20:38:00,
2013-10-29 16:54:00,84.4,78.3,29.86,ESE,112,1.1,-999.0,82,-99.99,,,1.59,Acu-Link.com,2013-10-29 20:54:00,
2013-10-29 17:09:00,84.0,78.3,29.87,SE,135,2.7,-999.0,83,-99.99,,,1.59,Acu-Link.com,2013-10-29 21:09:00,
2013-10-29 17:24:00,83.5,78.1,29.88,East,90,2.7,-999.0,84,-99.99,,,1.59,Acu-Link.com,2013-10-29 21:24:00,
2013-10-29 17:39:00,83.1,78.5,29.88,East,90,2.7,-999.0,86,-99.99,,,1.59,Acu-Link.com,2013-10-29 21:39:00,
2013-10-29 17:54:00,82.6,78.3,29.88,ESE,112,2.7,-999.0,87,-99.99,,,1.59,Acu-Link.com,2013-10-29 21:54:00,
2013-10-29 18:10:00,82.2,78.3,29.88,East,90,2.2,-999.0,88,-99.99,,,1.59,Acu-Link.com,2013-10-29 22:10:00,
2013-10-29 18:25:00,81.9,77.9,29.88,ENE,67,2.7,-999.0,88,-99.99,,,1.59,Acu-Link.com,2013-10-29 22:25:00,
2013-10-29 18:40:00,81.9,78.3,29.90,ESE,112,1.1,-999.0,89,-99.99,,,1.59,Acu-Link.com,2013-10-29 22:40:00,
2013-10-29 18:55:00,82.0,78.5,29.91,ESE,112,2.7,-999.0,89,-99.99,,,1.59,Acu-Link.com,2013-10-29 22:55:00,
2013-10-29 19:10:00,81.9,78.3,29.91,SE,135,2.2,-999.0,89,-99.99,,,1.59,Acu-Link.com,2013-10-29 23:10:00,
2013-10-29 19:26:00,81.7,78.1,29.91,ESE,112,1.1,-999.0,89,-99.99,,,1.59,Acu-Link.com,2013-10-29 23:26:00,
2013-10-29 19:41:00,81.7,77.8,29.92,South,180,0.0,-999.0,88,-99.99,,,1.59,Acu-Link.com,2013-10-29 23:41:00,
2013-10-29 19:56:00,81.7,77.8,29.93,East,90,0.0,-999.0,88,-99.99,,,1.59,Acu-Link.com,2013-10-29 23:56:00,
2013-10-29 20:11:00,81.3,77.8,29.93,WSW,247,0.0,-999.0,89,-99.99,,,1.59,Acu-Link.com,2013-10-30 00:11:00,
2013-10-29 20:27:00,81.5,78.3,29.93,South,180,0.0,-999.0,90,-99.99,,,1.59,Acu-Link.com,2013-10-30 00:27:00,
2013-10-29 20:42:00,81.5,78.3,29.93,West,270,2.2,-999.0,90,-99.99,,,1.59,Acu-Link.com,2013-10-30 00:42:00,
2013-10-29 20:57:00,81.1,78.3,29.94,SSE,157,2.2,-999.0,91,-99.99,,,1.59,Acu-Link.com,2013-10-30 00:57:00,
2013-10-29 21:12:00,81.1,78.3,29.93,South,180,1.6,-999.0,91,-99.99,,,1.59,Acu-Link.com,2013-10-30 01:12:00,
2013-10-29 21:27:00,81.0,78.1,29.93,SSE,157,1.1,-999.0,91,-99.99,,,1.59,Acu-Link.com,2013-10-30 01:27:00,
2013-10-29 21:43:00,81.0,77.7,29.94,SSW,202,2.2,-999.0,90,-99.99,,,1.59,Acu-Link.com,2013-10-30 01:43:00,
2013-10-29 21:58:00,81.0,77.7,29.94,SSW,202,2.2,-999.0,90,-99.99,,,1.59,Acu-Link.com,2013-10-30 01:58:00,
2013-10-29 22:13:00,80.8,77.6,29.94,SSE,157,1.6,-999.0,90,-99.99,,,1.59,Acu-Link.com,2013-10-30 02:13:00,
2013-10-29 22:28:00,80.8,77.6,29.94,SE,135,3.1,-999.0,90,-99.99,,,1.59,Acu-Link.com,2013-10-30 02:28:00,
2013-10-29 22:43:00,80.4,77.2,29.95,SW,225,2.7,-999.0,90,-99.99,,,1.59,Acu-Link.com,2013-10-30 02:43:00,
2013-10-29 22:58:00,80.2,77.0,29.94,SE,135,1.6,-999.0,90,-99.99,,,1.59,Acu-Link.com,2013-10-30 02:58:00,
2013-10-29 23:14:00,80.2,77.0,29.94,SSW,202,2.7,-999.0,90,-99.99,,,1.59,Acu-Link.com,2013-10-30 03:14:00,
2013-10-29 23:29:00,80.1,76.9,29.94,SSE,157,1.1,-999.0,90,-99.99,,,1.59,Acu-Link.com,2013-10-30 03:29:00,
2013-10-29 23:44:00,79.9,76.7,29.94,SSW,202,0.0,-999.0,90,-99.99,,,1.59,Acu-Link.com,2013-10-30 03:44:00,
2013-10-29 23:59:00,79.9,76.7,29.94,South,180,0.0,-999.0,90,-99.99,,,1.59,Acu-Link.com,2013-10-30 03:59:00,